Time;durP1;ratioP1;P1;durP2;ratioP2;P2;SDS_P1;SDS_P2;PMS_P1;PMS_P2;Temp;Humidity;BMP_temperature;BMP_pressure;BME280_temperature;BME280_humidity;BME280_pressure;Samples;Min_cycle;Max_cycle;Signal;HPM_P1;HPM_P2
2022/03/31 00:00:21;;;;;;;6.22;2.53;;;5.30;99.90;;;;;;5061202;28;20153;-60
2022/03/31 00:02:46;;;;;;;7.68;2.50;;;5.30;99.90;;;;;;5061919;28;20056;-59
2022/03/31 00:05:13;;;;;;;8.77;3.13;;;5.30;99.90;;;;;;5060105;28;20052;-59
2022/03/31 00:08:06;;;;;;;12.55;4.78;;;5.30;99.90;;;;;;5059335;28;20048;-59
2022/03/31 00:10:34;;;;;;;7.85;3.10;;;5.20;99.90;;;;;;5061402;28;20412;-59
2022/03/31 00:13:01;;;;;;;9.07;4.13;;;5.10;99.90;;;;;;5062895;28;20449;-59
2022/03/31 00:15:28;;;;;;;31.27;4.20;;;5.20;99.90;;;;;;5059979;28;20032;-59
2022/03/31 00:17:55;;;;;;;5.38;2.10;;;5.10;99.90;;;;;;5060944;28;20119;-60
2022/03/31 00:20:21;;;;;;;9.18;3.70;;;5.30;99.90;;;;;;5064890;28;20104;-59
2022/03/31 00:22:46;;;;;;;11.65;3.83;;;5.20;99.90;;;;;;5045138;28;20829;-59
2022/03/31 00:25:13;;;;;;;9.43;3.83;;;5.10;99.90;;;;;;5042551;28;20032;-60
2022/03/31 00:27:39;;;;;;;11.98;3.80;;;5.00;99.90;;;;;;5062669;28;20066;-59
2022/03/31 00:30:08;;;;;;;6.63;2.65;;;5.00;99.90;;;;;;5057944;28;20373;-60
2022/03/31 00:32:34;;;;;;;9.30;3.38;;;5.00;99.90;;;;;;5045139;28;20032;-60
2022/03/31 00:35:00;;;;;;;8.38;3.75;;;5.00;99.90;;;;;;5063433;28;20029;-60
2022/03/31 00:37:27;;;;;;;7.78;2.80;;;5.00;99.90;;;;;;5061266;28;20047;-60
2022/03/31 00:39:53;;;;;;;7.10;3.25;;;5.20;99.90;;;;;;5063001;28;20052;-60
2022/03/31 00:42:18;;;;;;;9.68;3.03;;;5.10;99.90;;;;;;5060704;28;20029;-60
2022/03/31 00:44:44;;;;;;;6.70;2.45;;;5.10;99.90;;;;;;5067618;28;20048;-60
2022/03/31 00:47:10;;;;;;;14.35;3.90;;;5.00;99.90;;;;;;5065432;28;20028;-60
2022/03/31 00:49:36;;;;;;;13.57;4.53;;;5.00;99.90;;;;;;5062709;28;20026;-60
2022/03/31 00:52:02;;;;;;;8.00;3.50;;;4.90;99.90;;;;;;5048629;28;20040;-60
2022/03/31 00:54:28;;;;;;;11.13;3.67;;;4.80;99.90;;;;;;5064756;28;20826;-60
2022/03/31 00:56:56;;;;;;;16.33;4.35;;;4.90;99.90;;;;;;5063665;28;20097;-60
2022/03/31 00:59:21;;;;;;;8.43;3.55;;;4.80;99.90;;;;;;5062952;28;20480;-60
2022/03/31 01:01:48;;;;;;;9.93;3.08;;;4.80;99.90;;;;;;5056748;28;20086;-60
2022/03/31 01:04:15;;;;;;;9.50;4.35;;;5.00;99.90;;;;;;5047842;28;20017;-60
2022/03/31 01:06:43;;;;;;;8.50;3.60;;;5.10;99.90;;;;;;5036689;28;20025;-61
2022/03/31 01:09:10;;;;;;;8.05;3.13;;;5.10;99.90;;;;;;5064044;28;20094;-60
2022/03/31 01:11:36;;;;;;;9.35;3.83;;;4.90;99.90;;;;;;5045515;28;20036;-60
2022/03/31 01:14:01;;;;;;;8.57;2.65;;;5.00;99.90;;;;;;5061293;28;20036;-60
2022/03/31 01:16:30;;;;;;;10.63;3.30;;;5.20;99.90;;;;;;5045232;28;20033;-60
2022/03/31 01:18:56;;;;;;;6.95;2.78;;;5.10;99.90;;;;;;5057121;28;20491;-60
2022/03/31 01:21:22;;;;;;;12.93;3.90;;;5.10;99.90;;;;;;5056734;28;20033;-61
2022/03/31 01:23:47;;;;;;;23.63;5.20;;;5.10;99.90;;;;;;5054051;28;20494;-60
2022/03/31 01:26:13;;;;;;;7.50;3.58;;;5.00;99.90;;;;;;5060466;28;20096;-60
2022/03/31 01:28:43;;;;;;;11.75;3.75;;;5.00;99.90;;;;;;5044462;28;20075;-60
2022/03/31 01:31:10;;;;;;;8.90;3.70;;;4.90;99.90;;;;;;5057181;28;20450;-60
2022/03/31 01:33:36;;;;;;;14.23;3.65;;;4.90;99.90;;;;;;5061625;28;20140;-60
2022/03/31 01:36:04;;;;;;;7.80;3.17;;;4.70;99.90;;;;;;5059440;28;20388;-60
2022/03/31 01:38:30;;;;;;;19.33;4.32;;;4.70;99.90;;;;;;5058836;28;20392;-60
2022/03/31 01:40:56;;;;;;;14.18;4.88;;;4.70;99.90;;;;;;5050414;28;20035;-60
2022/03/31 01:43:22;;;;;;;16.25;5.40;;;4.80;99.90;;;;;;5040983;28;20044;-60
2022/03/31 01:45:52;;;;;;;7.72;3.10;;;4.70;99.90;;;;;;5058551;28;20052;-60
2022/03/31 01:48:18;;;;;;;16.95;4.05;;;4.70;99.90;;;;;;5055854;28;20082;-60
2022/03/31 01:50:44;;;;;;;10.55;4.63;;;4.80;99.90;;;;;;5056815;28;20044;-60
2022/03/31 01:53:09;;;;;;;13.52;4.32;;;4.70;99.90;;;;;;5039557;28;20036;-60
2022/03/31 01:55:36;;;;;;;10.75;4.10;;;4.70;99.90;;;;;;5057760;28;20050;-59
2022/03/31 01:58:02;;;;;;;16.83;4.20;;;4.80;99.90;;;;;;5059227;28;20025;-59
2022/03/31 02:00:27;;;;;;;10.70;4.07;;;5.00;99.90;;;;;;5056045;28;20153;-60
2022/03/31 02:02:53;;;;;;;9.40;4.07;;;5.00;99.90;;;;;;5059847;28;20017;-59
2022/03/31 02:05:19;;;;;;;21.80;3.95;;;4.90;99.90;;;;;;5053096;28;20407;-60
2022/03/31 02:07:44;;;;;;;10.10;4.22;;;4.90;99.90;;;;;;5040971;28;20020;-60
2022/03/31 02:10:12;;;;;;;9.40;4.15;;;4.80;99.90;;;;;;5060799;28;20093;-60
2022/03/31 02:12:38;;;;;;;7.55;3.83;;;4.90;99.90;;;;;;5057880;28;20082;-59
2022/03/31 02:15:05;;;;;;;10.98;4.10;;;4.70;99.90;;;;;;5057634;28;20036;-60
2022/03/31 02:17:31;;;;;;;13.43;4.00;;;4.70;99.90;;;;;;5052265;28;20029;-60
2022/03/31 02:19:57;;;;;;;10.85;4.50;;;4.80;99.90;;;;;;5054013;28;20506;-60
2022/03/31 02:22:23;;;;;;;12.68;4.22;;;4.90;99.90;;;;;;5055521;28;20032;-61
2022/03/31 02:24:49;;;;;;;12.85;5.18;;;4.80;99.90;;;;;;5058797;28;20024;-60
2022/03/31 02:27:14;;;;;;;15.07;5.88;;;4.80;99.90;;;;;;5056741;28;20596;-60
2022/03/31 02:29:40;;;;;;;10.45;4.63;;;4.90;99.90;;;;;;5055620;28;20031;-61
2022/03/31 02:32:07;;;;;;;10.73;4.43;;;5.00;99.90;;;;;;5056052;28;20028;-60
2022/03/31 02:34:33;;;;;;;11.23;4.90;;;4.90;99.90;;;;;;5053794;28;20025;-60
2022/03/31 02:36:59;;;;;;;13.13;5.10;;;4.40;99.90;;;;;;5060940;28;20029;-60
2022/03/31 02:39:24;;;;;;;11.10;4.63;;;4.40;99.90;;;;;;5057645;28;20053;-60
2022/03/31 02:41:50;;;;;;;11.50;4.45;;;4.50;99.90;;;;;;5062297;28;20054;-60
2022/03/31 02:44:16;;;;;;;10.30;4.25;;;4.40;99.90;;;;;;5054836;28;20025;-60
2022/03/31 02:46:42;;;;;;;8.50;3.40;;;4.60;99.90;;;;;;5061748;28;20025;-60
2022/03/31 02:49:08;;;;;;;11.95;4.18;;;4.80;99.90;;;;;;5062243;28;20035;-60
2022/03/31 02:51:34;;;;;;;6.97;3.85;;;4.80;99.90;;;;;;5062568;28;20037;-60
2022/03/31 02:56:43;;;;;;;7.43;3.65;;;4.80;99.90;;;;;;5056026;28;20040;-59
2022/03/31 02:59:09;;;;;;;12.63;4.22;;;4.70;99.90;;;;;;5062940;28;20032;-60
2022/03/31 03:01:35;;;;;;;13.70;4.35;;;4.70;99.90;;;;;;5060090;28;20045;-59
2022/03/31 03:04:01;;;;;;;11.70;4.78;;;4.50;99.90;;;;;;5056667;28;20383;-60
2022/03/31 03:06:27;;;;;;;14.18;4.55;;;4.50;99.90;;;;;;5061380;28;20025;-60
2022/03/31 03:08:54;;;;;;;12.93;4.93;;;4.40;99.90;;;;;;5059514;28;20026;-60
2022/03/31 03:11:20;;;;;;;10.68;5.35;;;4.50;99.90;;;;;;5062640;28;20028;-60
2022/03/31 03:13:46;;;;;;;12.77;3.85;;;4.50;99.90;;;;;;5039991;28;20742;-60
2022/03/31 03:16:12;;;;;;;9.18;3.88;;;4.60;99.90;;;;;;5054669;28;20056;-60
2022/03/31 03:18:39;;;;;;;11.88;4.28;;;4.50;99.90;;;;;;5053718;28;20032;-59
2022/03/31 03:21:07;;;;;;;8.50;4.18;;;4.50;99.90;;;;;;5058278;28;20474;-60
2022/03/31 03:23:33;;;;;;;10.20;3.92;;;4.60;99.90;;;;;;5046138;28;20028;-60
2022/03/31 03:25:58;;;;;;;8.10;3.80;;;4.50;99.90;;;;;;5041266;28;20419;-60
2022/03/31 03:28:24;;;;;;;9.45;4.00;;;4.70;99.90;;;;;;5057853;28;20020;-60
2022/03/31 03:30:50;;;;;;;10.73;3.83;;;4.80;99.90;;;;;;5058910;28;20028;-60
2022/03/31 03:33:15;;;;;;;17.92;4.65;;;5.00;99.90;;;;;;5055226;28;20028;-60
2022/03/31 03:35:41;;;;;;;24.90;4.95;;;5.00;99.90;;;;;;5066306;28;20028;-60
2022/03/31 03:38:07;;;;;;;13.30;5.07;;;4.80;99.90;;;;;;5063322;28;20075;-60
2022/03/31 03:40:33;;;;;;;9.68;4.25;;;4.70;99.90;;;;;;5080253;28;20031;-60
2022/03/31 03:42:59;;;;;;;10.57;4.63;;;4.80;99.90;;;;;;5071736;28;20559;-60
2022/03/31 03:45:25;;;;;;;11.82;4.70;;;4.70;99.90;;;;;;5075669;28;20016;-60
2022/03/31 03:47:52;;;;;;;25.75;5.20;;;4.50;99.90;;;;;;5077182;28;20016;-60
2022/03/31 03:50:18;;;;;;;9.20;3.35;;;4.40;99.90;;;;;;5073805;28;20039;-60
2022/03/31 03:52:45;;;;;;;14.75;5.30;;;4.30;99.90;;;;;;5076625;28;20476;-60
2022/03/31 03:55:11;;;;;;;11.60;4.45;;;4.30;99.90;;;;;;5075639;28;20044;-60
2022/03/31 03:57:38;;;;;;;12.40;3.40;;;4.40;99.90;;;;;;5074428;28;20020;-60
2022/03/31 04:00:04;;;;;;;12.98;5.15;;;4.50;99.90;;;;;;5081220;28;20108;-60
2022/03/31 04:02:30;;;;;;;13.88;4.75;;;4.60;99.90;;;;;;5062171;28;20028;-60
2022/03/31 04:04:55;;;;;;;16.60;5.47;;;4.50;99.90;;;;;;5081854;28;20510;-60
2022/03/31 04:07:21;;;;;;;11.07;4.50;;;4.40;99.90;;;;;;5060782;28;20028;-60
2022/03/31 04:09:47;;;;;;;9.07;3.78;;;4.60;99.90;;;;;;5075279;28;20086;-60
2022/03/31 04:12:13;;;;;;;8.38;3.75;;;4.70;99.90;;;;;;5082241;28;20028;-60
2022/03/31 04:14:39;;;;;;;8.15;3.90;;;4.70;99.90;;;;;;5081606;28;20032;-60
2022/03/31 04:17:04;;;;;;;12.27;4.65;;;4.60;99.90;;;;;;5072811;28;20029;-60
2022/03/31 04:19:30;;;;;;;9.85;4.47;;;4.30;99.90;;;;;;5076593;28;20032;-60
2022/03/31 04:21:56;;;;;;;8.30;3.90;;;4.30;99.90;;;;;;5082587;28;20039;-60
2022/03/31 04:24:21;;;;;;;12.57;5.45;;;4.30;99.90;;;;;;5076183;28;20442;-59
2022/03/31 04:26:47;;;;;;;13.27;5.22;;;4.20;99.90;;;;;;5076214;28;20020;-60
2022/03/31 04:29:12;;;;;;;13.68;5.07;;;4.10;99.90;;;;;;5072715;28;20027;-60
2022/03/31 04:31:43;;;;;;;13.02;5.53;;;4.00;99.90;;;;;;5070128;28;20028;-59
2022/03/31 04:34:15;;;;;;;10.27;4.68;;;4.10;99.90;;;;;;5072340;28;20036;-59
2022/03/31 04:36:44;;;;;;;14.48;5.97;;;4.00;99.90;;;;;;5073990;28;20125;-59
2022/03/31 04:39:12;;;;;;;13.65;5.80;;;4.10;99.90;;;;;;5064599;28;20060;-60
2022/03/31 04:41:39;;;;;;;14.63;5.45;;;4.20;99.90;;;;;;5049670;28;20040;-59
2022/03/31 04:44:05;;;;;;;15.07;5.07;;;4.40;99.90;;;;;;5055542;28;20021;-60
2022/03/31 04:46:33;;;;;;;9.15;4.53;;;4.50;99.90;;;;;;5056917;28;20472;-60
2022/03/31 04:48:59;;;;;;;10.88;4.90;;;4.60;99.90;;;;;;5062563;28;20063;-60
2022/03/31 04:51:25;;;;;;;12.27;5.45;;;4.70;99.90;;;;;;5056531;28;20476;-60
2022/03/31 04:53:50;;;;;;;12.23;5.63;;;4.60;99.90;;;;;;5057830;28;20028;-60
2022/03/31 04:56:16;;;;;;;10.57;4.25;;;4.70;99.90;;;;;;5059605;28;20077;-60
2022/03/31 04:58:43;;;;;;;12.75;5.40;;;4.70;99.90;;;;;;5052656;28;20059;-60
2022/03/31 05:01:10;;;;;;;13.27;5.50;;;4.70;99.90;;;;;;5054007;28;20060;-60
2022/03/31 05:03:37;;;;;;;12.57;5.22;;;4.50;99.90;;;;;;5052645;28;20389;-60
2022/03/31 05:06:04;;;;;;;11.60;3.80;;;4.60;99.90;;;;;;5049380;28;20020;-60
2022/03/31 05:08:29;;;;;;;8.77;3.70;;;4.60;99.90;;;;;;5049657;28;20119;-60
2022/03/31 05:10:55;;;;;;;15.60;6.05;;;4.60;99.90;;;;;;5061742;28;20107;-59
2022/03/31 05:13:21;;;;;;;21.38;4.30;;;4.60;99.90;;;;;;5054706;28;20047;-59
2022/03/31 05:15:46;;;;;;;15.02;6.55;;;4.40;99.90;;;;;;5052016;28;20483;-60
2022/03/31 05:18:12;;;;;;;8.57;4.35;;;4.40;99.90;;;;;;5061182;28;20020;-60
2022/03/31 05:20:38;;;;;;;17.80;4.95;;;4.30;99.90;;;;;;5054498;28;20021;-60
2022/03/31 05:23:03;;;;;;;8.70;4.40;;;4.30;99.90;;;;;;5063780;28;20025;-59
2022/03/31 05:25:29;;;;;;;16.73;6.35;;;4.40;99.90;;;;;;5057696;28;20128;-60
2022/03/31 05:27:58;;;;;;;13.30;5.70;;;4.40;99.90;;;;;;5051232;28;20024;-59
2022/03/31 05:30:24;;;;;;;14.77;6.95;;;4.50;99.90;;;;;;5057539;28;20025;-59
2022/03/31 05:32:52;;;;;;;14.30;6.43;;;4.40;99.90;;;;;;5056796;28;20043;-59
2022/03/31 05:35:18;;;;;;;14.07;5.72;;;4.30;99.90;;;;;;5054631;28;20484;-59
2022/03/31 05:37:44;;;;;;;14.73;5.35;;;4.30;99.90;;;;;;5052890;28;20029;-59
2022/03/31 05:40:11;;;;;;;11.13;5.68;;;4.30;99.90;;;;;;5060777;28;20693;-59
2022/03/31 05:42:37;;;;;;;16.15;6.60;;;4.40;99.90;;;;;;5059019;28;20063;-60
2022/03/31 05:45:05;;;;;;;11.40;5.47;;;4.30;99.90;;;;;;5061555;28;20480;-59
2022/03/31 05:47:31;;;;;;;8.63;4.28;;;4.60;99.90;;;;;;5050301;28;20028;-60
2022/03/31 05:49:56;;;;;;;15.20;5.43;;;4.80;99.90;;;;;;5054242;28;20060;-59
2022/03/31 05:52:22;;;;;;;13.77;5.57;;;4.90;99.90;;;;;;5058131;28;20033;-61
2022/03/31 05:54:48;;;;;;;16.30;6.32;;;4.90;99.90;;;;;;5057465;28;20029;-59
2022/03/31 05:57:15;;;;;;;15.77;6.20;;;4.70;99.90;;;;;;5057215;28;20033;-59
2022/03/31 05:59:41;;;;;;;16.10;5.88;;;4.80;99.90;;;;;;5048635;28;20025;-59
2022/03/31 06:02:08;;;;;;;20.65;7.07;;;5.00;99.90;;;;;;5058012;28;20110;-59
2022/03/31 06:04:33;;;;;;;12.30;4.75;;;4.70;99.90;;;;;;5051309;28;20075;-59
2022/03/31 06:06:59;;;;;;;16.75;5.60;;;4.60;99.90;;;;;;5057364;28;20423;-59
2022/03/31 06:09:25;;;;;;;18.45;7.15;;;4.80;99.90;;;;;;5050226;28;20083;-59
2022/03/31 06:11:50;;;;;;;21.85;7.93;;;4.60;99.90;;;;;;5049779;28;20477;-59
2022/03/31 06:14:16;;;;;;;12.38;6.32;;;4.50;99.90;;;;;;5054609;28;20020;-59
2022/03/31 06:16:41;;;;;;;11.88;5.07;;;4.50;99.90;;;;;;5057344;28;20028;-59
2022/03/31 06:19:10;;;;;;;10.10;4.90;;;5.00;99.90;;;;;;5047458;28;20043;-59
2022/03/31 06:21:36;;;;;;;15.82;5.80;;;5.10;99.90;;;;;;5029996;28;20033;-59
2022/03/31 06:24:03;;;;;;;15.18;6.45;;;5.10;99.90;;;;;;5054174;28;20094;-59
2022/03/31 06:26:29;;;;;;;23.73;7.30;;;5.00;99.90;;;;;;5052938;28;20052;-59
2022/03/31 06:28:55;;;;;;;13.68;5.57;;;5.10;99.90;;;;;;5052139;28;20075;-59
2022/03/31 06:31:24;;;;;;;12.73;5.30;;;5.20;99.90;;;;;;5047908;28;20035;-59
2022/03/31 06:33:50;;;;;;;10.85;5.30;;;5.00;99.90;;;;;;5054995;28;20035;-59
2022/03/31 06:36:16;;;;;;;14.25;5.50;;;5.20;99.90;;;;;;5051824;28;20029;-59
2022/03/31 06:38:42;;;;;;;13.73;4.75;;;5.50;99.90;;;;;;5053148;28;20680;-59
2022/03/31 06:41:10;;;;;;;15.43;6.07;;;5.60;99.90;;;;;;5051733;28;20029;-59
2022/03/31 06:43:38;;;;;;;16.05;5.68;;;5.30;99.90;;;;;;5057949;28;20087;-59
2022/03/31 06:46:04;;;;;;;8.77;3.60;;;5.40;99.90;;;;;;5060524;28;20020;-59
2022/03/31 06:48:30;;;;;;;10.75;4.88;;;5.60;99.90;;;;;;5054586;28;20400;-60
2022/03/31 06:50:57;;;;;;;16.88;5.40;;;5.60;99.90;;;;;;5058908;28;20091;-59
2022/03/31 06:53:23;;;;;;;14.40;5.60;;;5.30;99.90;;;;;;5052116;28;20400;-59
2022/03/31 06:55:49;;;;;;;11.77;3.78;;;5.30;99.90;;;;;;5058727;28;20032;-59
2022/03/31 06:58:15;;;;;;;25.40;5.32;;;5.50;99.90;;;;;;5057206;28;20722;-59
2022/03/31 07:00:41;;;;;;;10.80;4.57;;;5.50;99.90;;;;;;5057250;28;20040;-59
2022/03/31 07:03:06;;;;;;;8.98;4.13;;;5.40;99.90;;;;;;5057732;28;20131;-59
2022/03/31 07:05:36;;;;;;;14.85;4.57;;;5.50;99.90;;;;;;5055697;28;20096;-59
2022/03/31 07:08:02;;;;;;;12.20;4.28;;;5.50;99.90;;;;;;5057418;28;20017;-59
2022/03/31 07:10:28;;;;;;;11.55;4.25;;;5.40;99.90;;;;;;5055988;28;20041;-59
2022/03/31 07:12:53;;;;;;;12.27;4.25;;;5.40;99.90;;;;;;5038836;28;20115;-59
2022/03/31 07:15:19;;;;;;;11.15;4.95;;;5.40;99.90;;;;;;5049726;28;20452;-59
2022/03/31 07:17:45;;;;;;;9.38;4.25;;;5.40;99.90;;;;;;5051707;28;20515;-59
2022/03/31 07:20:11;;;;;;;10.40;4.18;;;5.60;99.90;;;;;;5051157;28;20033;-59
2022/03/31 07:22:43;;;;;;;6.22;2.90;;;5.50;99.90;;;;;;5051139;28;20054;-59
2022/03/31 07:25:09;;;;;;;14.50;4.80;;;5.50;99.90;;;;;;5036713;28;20052;-59
2022/03/31 07:27:35;;;;;;;20.05;5.20;;;5.60;99.90;;;;;;5052104;28;20044;-59
2022/03/31 07:30:01;;;;;;;15.38;5.95;;;5.50;99.90;;;;;;5060135;28;20489;-59
2022/03/31 07:32:26;;;;;;;15.40;3.92;;;5.50;99.90;;;;;;5036346;28;20033;-59
2022/03/31 07:34:52;;;;;;;22.77;5.20;;;5.80;99.90;;;;;;5037727;28;20085;-59
2022/03/31 07:37:18;;;;;;;21.13;5.65;;;5.60;99.90;;;;;;5055183;28;20100;-59
2022/03/31 07:39:45;;;;;;;11.90;4.13;;;5.70;99.90;;;;;;5054849;28;20087;-59
2022/03/31 07:42:11;;;;;;;12.15;3.50;;;5.90;99.90;;;;;;5048174;28;20024;-59
2022/03/31 07:44:37;;;;;;;9.35;4.03;;;6.30;99.90;;;;;;5050954;28;20021;-59
2022/03/31 07:47:03;;;;;;;18.52;6.00;;;6.60;99.90;;;;;;5063236;28;20086;-59
2022/03/31 07:49:29;;;;;;;7.40;3.83;;;6.20;99.90;;;;;;5060499;28;20060;-59
2022/03/31 07:51:55;;;;;;;13.32;5.82;;;6.10;99.90;;;;;;5056468;28;20053;-59
2022/03/31 07:54:20;;;;;;;18.65;5.03;;;6.10;99.90;;;;;;5055419;28;20106;-59
2022/03/31 07:56:46;;;;;;;23.88;5.13;;;6.10;99.90;;;;;;5038598;28;20029;-59
2022/03/31 07:59:11;;;;;;;14.05;5.47;;;5.90;99.90;;;;;;5058261;28;20039;-59
2022/03/31 08:01:37;;;;;;;14.93;5.57;;;6.00;99.90;;;;;;5054504;28;20811;-59
2022/03/31 08:04:05;;;;;;;25.15;5.95;;;5.90;99.90;;;;;;5054146;28;20032;-60
2022/03/31 08:06:31;;;;;;;14.15;5.20;;;5.80;99.90;;;;;;5060629;28;20044;-58
2022/03/31 08:08:56;;;;;;;15.18;5.95;;;5.70;99.90;;;;;;5057832;28;20063;-58
2022/03/31 08:11:23;;;;;;;20.40;5.28;;;6.10;99.90;;;;;;5055396;28;20078;-59
2022/03/31 08:13:48;;;;;;;17.95;6.07;;;6.10;99.90;;;;;;5036957;28;20032;-59
2022/03/31 08:16:14;;;;;;;18.33;5.72;;;6.10;99.90;;;;;;5055689;28;20431;-59
2022/03/31 08:18:40;;;;;;;12.45;5.35;;;6.30;99.90;;;;;;5054399;28;20037;-59
2022/03/31 08:21:05;;;;;;;18.20;6.13;;;5.90;99.90;;;;;;5054254;28;20101;-59
2022/03/31 08:23:32;;;;;;;13.23;4.63;;;6.00;99.90;;;;;;5054418;28;20017;-59
2022/03/31 08:25:58;;;;;;;14.88;6.13;;;6.40;99.90;;;;;;5037532;28;20059;-59
2022/03/31 08:28:25;;;;;;;13.43;5.05;;;6.20;99.90;;;;;;5062021;28;20082;-59
2022/03/31 08:30:51;;;;;;;14.60;4.63;;;6.40;99.90;;;;;;5058387;28;20052;-59
2022/03/31 08:33:17;;;;;;;18.45;5.90;;;6.50;99.90;;;;;;5056567;28;20025;-59
2022/03/31 08:35:43;;;;;;;10.77;3.97;;;6.70;99.90;;;;;;5053873;28;20040;-59
2022/03/31 08:38:08;;;;;;;13.50;4.38;;;6.70;99.90;;;;;;5054467;28;20053;-59
2022/03/31 08:40:36;;;;;;;13.35;4.65;;;6.80;99.90;;;;;;5053073;28;20040;-59
2022/03/31 08:43:02;;;;;;;14.35;5.85;;;6.90;99.90;;;;;;5059531;28;20410;-59
2022/03/31 08:45:33;;;;;;;13.57;4.75;;;6.90;99.90;;;;;;5052472;28;20021;-59
2022/03/31 08:48:00;;;;;;;16.27;5.05;;;7.20;99.90;;;;;;5052786;28;20052;-59
2022/03/31 08:50:26;;;;;;;15.90;4.78;;;7.20;99.90;;;;;;5051946;28;20380;-59
2022/03/31 08:52:53;;;;;;;17.55;6.25;;;7.20;99.90;;;;;;5059207;28;20028;-60
2022/03/31 08:55:19;;;;;;;17.05;6.63;;;7.00;99.90;;;;;;5059983;28;20066;-59
2022/03/31 08:57:48;;;;;;;13.73;5.68;;;6.90;99.90;;;;;;5063721;28;20570;-59
2022/03/31 09:00:15;;;;;;;22.27;6.05;;;6.70;99.90;;;;;;5042892;28;20051;-59
2022/03/31 09:02:53;;;;;;;24.90;6.35;;;7.00;99.90;;;;;;5058899;28;20029;-59
2022/03/31 09:05:18;;;;;;;9.65;3.75;;;7.30;99.90;;;;;;5057510;28;20029;-59
2022/03/31 09:07:56;;;;;;;13.35;5.00;;;7.80;99.90;;;;;;5033037;28;20024;-59
2022/03/31 09:10:26;;;;;;;15.32;4.97;;;8.30;99.90;;;;;;5062635;28;20095;-59
2022/03/31 09:12:52;;;;;;;16.15;6.72;;;8.60;99.90;;;;;;5059419;28;20035;-59
2022/03/31 09:15:17;;;;;;;8.32;3.85;;;8.50;99.90;;;;;;5043987;28;20024;-59
2022/03/31 09:17:43;;;;;;;12.02;4.63;;;7.90;99.90;;;;;;5034391;28;20028;-59
2022/03/31 09:20:09;;;;;;;14.45;5.57;;;8.00;99.90;;;;;;5055829;28;20035;-59
2022/03/31 09:22:44;;;;;;;12.60;4.63;;;8.00;99.90;;;;;;5045560;28;20040;-60
2022/03/31 09:25:10;;;;;;;13.57;4.47;;;7.50;99.90;;;;;;5058623;28;20047;-59
2022/03/31 09:27:36;;;;;;;10.48;4.45;;;7.30;99.90;;;;;;5043958;28;20021;-59
2022/03/31 09:30:08;;;;;;;13.10;4.57;;;6.80;99.90;;;;;;5063113;28;20028;-59
2022/03/31 09:32:34;;;;;;;17.95;6.03;;;7.20;99.90;;;;;;5062942;28;20101;-59
2022/03/31 09:35:06;;;;;;;11.85;4.75;;;7.20;99.90;;;;;;5062331;28;20044;-59
2022/03/31 09:37:32;;;;;;;20.35;6.47;;;7.40;99.90;;;;;;5061068;28;20051;-60
2022/03/31 09:39:58;;;;;;;13.75;4.18;;;7.30;99.90;;;;;;5062424;28;20094;-60
2022/03/31 09:42:24;;;;;;;14.25;5.53;;;7.70;99.90;;;;;;5080564;28;20059;-60
2022/03/31 09:44:59;;;;;;;19.67;6.07;;;7.50;99.90;;;;;;5080428;28;20047;-60
2022/03/31 09:47:26;;;;;;;16.45;6.53;;;7.40;99.90;;;;;;5076010;28;20544;-60
2022/03/31 09:49:53;;;;;;;16.63;5.93;;;7.60;99.90;;;;;;5078625;28;20025;-60
2022/03/31 09:52:19;;;;;;;17.27;6.13;;;7.70;99.90;;;;;;5078862;28;20207;-60
2022/03/31 09:54:48;;;;;;;19.65;6.57;;;7.30;99.90;;;;;;5060914;28;20028;-59
2022/03/31 09:57:17;;;;;;;17.88;6.90;;;7.60;99.90;;;;;;5080145;28;20675;-59
2022/03/31 09:59:47;;;;;;;17.63;6.40;;;7.70;99.90;;;;;;5079379;28;20043;-59
2022/03/31 10:02:15;;;;;;;15.23;5.47;;;8.30;99.90;;;;;;5079285;28;20024;-59
2022/03/31 10:04:44;;;;;;;21.90;7.47;;;8.80;99.90;;;;;;5080010;28;20118;-59
2022/03/31 10:07:10;;;;;;;20.80;6.85;;;8.00;99.90;;;;;;5082513;28;20046;-59
2022/03/31 10:09:39;;;;;;;19.83;7.05;;;7.60;99.90;;;;;;5081314;28;20806;-59
2022/03/31 10:12:26;;;;;;;17.80;6.82;;;7.90;99.90;;;;;;5081360;28;20043;-60
2022/03/31 10:14:59;;;;;;;19.55;6.80;;;8.30;99.90;;;;;;5076134;28;20037;-60
2022/03/31 10:17:29;;;;;;;19.20;6.82;;;8.40;99.90;;;;;;5081259;28;20062;-59
2022/03/31 10:20:13;;;;;;;22.08;5.93;;;7.90;99.90;;;;;;5055214;28;20032;-59
2022/03/31 10:25:38;;;;;;;25.95;7.63;;;8.70;99.90;;;;;;5079262;28;20067;-60
2022/03/31 10:28:09;;;;;;;20.65;8.00;;;8.50;99.90;;;;;;5080192;28;20024;-59
2022/03/31 10:30:35;;;;;;;16.50;6.75;;;8.60;99.90;;;;;;5058858;28;20058;-59
2022/03/31 10:33:03;;;;;;;22.23;7.55;;;8.40;99.90;;;;;;5080742;28;20067;-60
2022/03/31 10:35:38;;;;;;;20.15;7.72;;;8.20;99.90;;;;;;5081026;28;20503;-59
2022/03/31 10:38:18;;;;;;;18.90;6.50;;;8.40;99.90;;;;;;5075869;28;20486;-59
2022/03/31 10:40:50;;;;;;;11.07;5.03;;;8.30;99.90;;;;;;5060435;28;20098;-60
2022/03/31 10:43:26;;;;;;;12.77;4.93;;;8.70;99.90;;;;;;5060036;28;20557;-59
2022/03/31 10:45:57;;;;;;;16.02;6.70;;;8.70;99.90;;;;;;5058846;28;20021;-60
2022/03/31 10:48:28;;;;;;;12.85;4.75;;;9.40;99.90;;;;;;5062835;28;20028;-59
2022/03/31 10:51:08;;;;;;;27.92;6.63;;;9.80;99.90;;;;;;5045123;28;21540;-59
2022/03/31 10:53:35;;;;;;;16.90;6.10;;;9.80;99.90;;;;;;5059937;28;20116;-60
2022/03/31 10:56:03;;;;;;;21.55;6.68;;;9.30;99.90;;;;;;5056883;28;20037;-60
2022/03/31 10:58:30;;;;;;;14.57;6.05;;;8.80;99.90;;;;;;5057525;28;20131;-60
2022/03/31 11:01:03;;;;;;;18.33;7.15;;;8.50;99.90;;;;;;5058342;28;20078;-60
2022/03/31 11:03:29;;;;;;;15.50;6.05;;;8.40;99.90;;;;;;5058819;28;20020;-61
2022/03/31 11:06:01;;;;;;;13.90;4.82;;;9.20;99.90;;;;;;5056376;28;20552;-59
2022/03/31 11:08:27;;;;;;;14.73;5.45;;;9.50;99.90;;;;;;5040836;28;20029;-59
2022/03/31 11:10:54;;;;;;;14.63;5.43;;;9.70;99.90;;;;;;5058946;28;20028;-59
2022/03/31 11:13:35;;;;;;;14.85;4.68;;;9.90;99.90;;;;;;5060333;28;20063;-60
2022/03/31 11:16:01;;;;;;;13.88;5.80;;;9.40;99.90;;;;;;5040405;28;20071;-62
2022/03/31 11:18:27;;;;;;;16.65;6.15;;;10.10;99.90;;;;;;5064101;28;20148;-59
2022/03/31 11:21:10;;;;;;;17.65;6.15;;;9.60;99.90;;;;;;5064007;28;20107;-60
2022/03/31 11:23:46;;;;;;;14.23;4.82;;;8.90;99.90;;;;;;5065337;28;20033;-60
2022/03/31 11:26:14;;;;;;;13.57;3.97;;;8.70;99.90;;;;;;5062519;28;20609;-60
2022/03/31 11:28:40;;;;;;;14.43;5.60;;;9.00;99.90;;;;;;5064557;28;20020;-60
2022/03/31 11:31:14;;;;;;;24.40;7.60;;;9.20;99.90;;;;;;5067796;28;20448;-60
2022/03/31 11:33:40;;;;;;;17.15;6.40;;;8.60;99.90;;;;;;5065588;28;20135;-59
2022/03/31 11:36:06;;;;;;;18.92;5.75;;;8.00;99.90;;;;;;5064850;28;20107;-60
2022/03/31 11:38:31;;;;;;;13.00;4.93;;;8.10;99.90;;;;;;5064598;28;20038;-59
2022/03/31 11:40:57;;;;;;;13.52;5.28;;;8.40;99.90;;;;;;5063232;28;20028;-60
2022/03/31 11:43:23;;;;;;;16.05;5.20;;;8.60;99.90;;;;;;5063607;28;20193;-59
2022/03/31 11:45:51;;;;;;;15.60;6.50;;;8.20;99.90;;;;;;5061013;28;20066;-60
2022/03/31 11:48:19;;;;;;;11.40;4.93;;;7.90;99.90;;;;;;5064192;28;20025;-60
2022/03/31 11:50:56;;;;;;;16.30;6.63;;;7.80;99.90;;;;;;5063167;28;20024;-60
2022/03/31 11:53:29;;;;;;;12.70;5.63;;;7.70;99.90;;;;;;5046080;28;20043;-60
2022/03/31 11:56:00;;;;;;;18.30;6.43;;;7.90;99.90;;;;;;5061938;28;20043;-60
2022/03/31 11:58:32;;;;;;;14.30;5.30;;;8.30;99.90;;;;;;5037439;28;20025;-60
2022/03/31 12:00:57;;;;;;;15.90;5.93;;;8.70;99.90;;;;;;5062516;28;20047;-60
2022/03/31 12:03:36;;;;;;;17.27;5.75;;;8.60;99.90;;;;;;5062872;28;20036;-60
2022/03/31 12:06:04;;;;;;;16.48;6.85;;;8.70;99.90;;;;;;5062238;28;20459;-59
2022/03/31 12:08:30;;;;;;;16.95;6.47;;;7.90;99.90;;;;;;5056487;28;20047;-59
2022/03/31 12:10:56;;;;;;;18.75;6.47;;;7.60;99.90;;;;;;5061967;28;20040;-61
2022/03/31 12:13:24;;;;;;;21.70;7.25;;;7.30;99.90;;;;;;5057614;28;20055;-59
2022/03/31 12:16:10;;;;;;;16.92;7.05;;;7.40;99.90;;;;;;5060407;28;20054;-59
2022/03/31 12:18:37;;;;;;;16.35;5.75;;;7.40;99.90;;;;;;5057587;28;20060;-59
2022/03/31 12:21:05;;;;;;;20.08;6.60;;;7.40;99.90;;;;;;5063401;28;20025;-58
2022/03/31 12:23:31;;;;;;;18.65;7.00;;;7.40;99.90;;;;;;5054618;28;20524;-59
2022/03/31 12:25:57;;;;;;;19.00;6.32;;;7.20;99.90;;;;;;5052962;28;20056;-59
2022/03/31 12:28:23;;;;;;;14.82;4.68;;;7.00;99.90;;;;;;5057131;28;20480;-59
2022/03/31 12:30:51;;;;;;;19.83;6.93;;;7.00;99.90;;;;;;5060975;28;21571;-59
2022/03/31 12:33:19;;;;;;;20.02;5.00;;;7.10;99.90;;;;;;5055243;28;20056;-59
2022/03/31 12:36:02;;;;;;;14.00;5.55;;;7.40;99.90;;;;;;5060346;28;20032;-59
2022/03/31 12:38:45;;;;;;;15.65;5.78;;;7.70;99.90;;;;;;5058394;28;20040;-59
2022/03/31 12:41:15;;;;;;;17.80;6.80;;;7.40;99.90;;;;;;5053090;28;20111;-59
2022/03/31 12:43:42;;;;;;;13.75;5.65;;;7.60;99.90;;;;;;5058896;28;20033;-59
2022/03/31 12:46:17;;;;;;;11.18;4.18;;;7.30;99.90;;;;;;5056351;28;20032;-59
2022/03/31 12:48:57;;;;;;;21.73;5.97;;;7.40;99.90;;;;;;5055342;28;20070;-61
2022/03/31 12:51:26;;;;;;;20.58;6.90;;;7.20;99.90;;;;;;5055831;28;20428;-61
2022/03/31 12:53:53;;;;;;;22.67;8.82;;;7.10;99.90;;;;;;5057376;28;20214;-61